Latest Weather Observations for Esperance Harbour

IDW60801

Issued at 12:32 am WST Wednesday 1 April 2015 (issued every 30 minutes, with the page automatically refreshed every 10 minutes)

About weather observations | Map of weather stations | Latest weather observations for WA | Other Formats
Station Details ID: 109504 Name: ESPERANCE NTC AWS Lat: -33.87 Lon: 121.90 Height: 0.0 m
Data from the previous 72 hours. | See also: Recent months for locations in Western Australia
Date/Time
WST
Temp
°C
App
Temp
°C
Dew
Point
Rel
Hum
%
Delta-T
°C
Wind Press
QNH
hPa
Press
MSL
hPa
Rain
since 9 am
mm
Dir
 
Spd
km/h
Gust
km/h
Spd
kts
Gust
kts
01/12:30am 18.7 - - - - - - - - - 1019.7 1019.7 -
01/12:00am 18.6 - - - - - - - - - 1019.6 1019.6 -
 
Date/Time
WST
Temp
°C
App
Temp
°C
Dew
Point
Rel
Hum
%
Delta-T
°C
Wind Press
QNH
hPa
Press
MSL
hPa
Rain
since 9 am
mm
Dir
 
Spd
km/h
Gust
km/h
Spd
kts
Gust
kts
31/11:30pm 18.2 - - - - - - - - - 1019.4 1019.4 -
31/11:00pm 17.7 - - - - - - - - - 1019.4 1019.4 -
31/10:30pm 17.3 - - - - - - - - - 1019.1 1019.1 -
31/10:00pm 17.2 - - - - - - - - - 1019.0 1019.0 -
31/09:30pm 17.3 - - - - - - - - - 1019.1 1019.1 -
31/09:00pm 18.0 - - - - - - - - - 1018.9 1018.9 -
31/08:30pm 19.2 - - - - - - - - - 1018.5 1018.5 -
31/08:00pm 19.2 - - - - - - - - - 1018.2 1018.2 -
31/07:30pm 19.1 - - - - - - - - - 1017.8 1017.8 -
31/07:00pm 19.2 - - - - - - - - - 1017.5 1017.5 -
31/06:30pm 19.1 - - - - - - - - - 1017.0 1017.0 -
31/06:00pm 19.2 - - - - - - - - - 1016.3 1016.3 -
31/05:30pm 19.4 - - - - - - - - - 1016.1 1016.1 -
31/05:00pm 19.8 - - - - - - - - - 1015.9 1015.9 -
31/04:30pm 19.9 - - - - - - - - - 1015.7 1015.7 -
31/04:00pm 20.1 - - - - - - - - - 1015.4 1015.4 -
31/03:30pm 20.3 - - - - - - - - - 1015.2 1015.2 -
31/03:00pm 20.1 - - - - - - - - - 1015.0 1015.0 -
31/02:30pm 19.9 - - - - - - - - - 1014.8 1014.8 -
31/02:00pm 19.4 - - - - - - - - - 1014.6 1014.6 -
31/01:30pm 18.6 - - - - - - - - - 1014.7 1014.7 -
31/01:00pm 18.1 - - - - - - - - - 1015.0 1015.0 -
31/12:30pm 18.2 - - - - - - - - - 1014.9 1014.9 -
31/12:00pm 18.1 - - - - - - - - - 1014.7 1014.7 -
31/11:30am 18.1 - - - - - - - - - 1015.3 1015.3 -
31/11:00am 18.2 - - - - - - - - - 1015.6 1015.6 -
31/10:30am 17.9 - - - - - - - - - 1015.8 1015.8 -
31/10:00am 17.6 - - - - - - - - - 1015.7 1015.7 -
31/09:30am 18.0 - - - - - - - - - 1015.6 1015.6 -
31/09:00am 17.8 - - - - - - - - - 1015.6 1015.6 -
31/08:30am 18.1 - - - - - - - - - 1015.7 1015.7 -
31/08:00am 18.5 - - - - - - - - - 1015.7 1015.7 -
31/07:30am 18.3 - - - - - - - - - 1015.8 1015.8 -
31/07:00am 18.5 - - - - - - - - - 1015.7 1015.7 -
31/06:30am 18.8 - - - - - - - - - 1015.6 1015.6 -
31/06:00am 19.3 - - - - - - - - - 1015.8 1015.8 -
31/05:30am 19.5 - - - - - - - - - 1015.8 1015.8 -
31/05:00am 19.4 - - - - - - - - - 1015.6 1015.6 -
31/04:30am 19.5 - - - - - - - - - 1015.4 1015.4 -
31/04:00am 19.5 - - - - - - - - - 1015.6 1015.6 -
31/03:30am 19.7 - - - - - - - - - 1015.8 1015.8 -
31/03:00am 20.5 - - - - - - - - - 1015.8 1015.8 -
31/02:30am 21.5 - - - - - - - - - 1015.3 1015.3 -
31/02:00am 22.2 - - - - - - - - - 1015.0 1015.0 -
31/01:30am 22.6 - - - - - - - - - 1014.6 1014.6 -
31/01:00am 23.7 - - - - - - - - - 1014.5 1014.5 -
31/12:30am 25.8 - - - - - - - - - 1013.7 1013.7 -
31/12:00am 25.8 - - - - - - - - - 1013.7 1013.7 -
 
Date/Time
WST
Temp
°C
App
Temp
°C
Dew
Point
Rel
Hum
%
Delta-T
°C
Wind Press
QNH
hPa
Press
MSL
hPa
Rain
since 9 am
mm
Dir
 
Spd
km/h
Gust
km/h
Spd
kts
Gust
kts
30/11:30pm 25.8 - - - - - - - - - 1013.5 1013.5 -
30/11:00pm 25.4 - - - - - - - - - 1013.8 1013.8 -
30/10:30pm 25.6 - - - - - - - - - 1013.9 1013.9 -
30/10:00pm 24.0 - - - - - - - - - 1014.0 1014.0 -
30/09:30pm 24.1 - - - - - - - - - 1014.2 1014.2 -
30/09:00pm 25.0 - - - - - - - - - 1014.1 1014.1 -
30/08:30pm 24.8 - - - - - - - - - 1014.3 1014.3 -
30/08:00pm 24.2 - - - - - - - - - 1014.4 1014.4 -
30/07:30pm 24.0 - - - - - - - - - 1014.4 1014.4 -
30/07:00pm 23.9 - - - - - - - - - 1014.4 1014.4 -
30/06:30pm 25.7 - - - - - - - - - 1014.1 1014.1 -
30/06:00pm 24.9 - - - - - - - - - 1014.0 1014.0 -
30/05:30pm 25.0 - - - - - - - - - 1014.1 1014.1 -
30/05:00pm 25.4 - - - - - - - - - 1014.1 1014.1 -
30/04:30pm 26.5 - - - - - - - - - 1013.9 1013.9 -
30/04:00pm 25.7 - - - - - - - - - 1014.2 1014.2 -
30/03:30pm 27.2 - - - - - - - - - 1013.9 1013.9 -
30/03:00pm 28.4 - - - - - - - - - 1013.9 1013.9 -
30/02:30pm 28.1 - - - - - - - - - 1014.6 1014.6 -
30/02:00pm 28.3 - - - - - - - - - 1014.7 1014.7 -
30/01:30pm 28.9 - - - - - - - - - 1015.0 1015.0 -
30/01:00pm 29.3 - - - - - - - - - 1015.5 1015.5 -
30/12:30pm 28.3 - - - - - - - - - 1015.9 1015.9 -
30/12:00pm 29.0 - - - - - - - - - 1016.5 1016.5 -
30/11:30am 28.4 - - - - - - - - - 1017.1 1017.1 -
30/11:00am 28.2 - - - - - - - - - 1017.6 1017.6 -
30/10:30am 27.4 - - - - - - - - - 1018.1 1018.1 -
30/10:00am 26.7 - - - - - - - - - 1018.4 1018.4 -
30/09:30am 24.9 - - - - - - - - - 1019.0 1019.0 -
30/09:00am 23.6 - - - - - - - - - 1019.2 1019.2 -
30/08:30am 21.7 - - - - - - - - - 1019.4 1019.4 -
30/08:00am 19.6 - - - - - - - - - 1019.4 1019.4 -
30/07:30am 18.1 - - - - - - - - - 1019.5 1019.5 -
30/07:00am 17.3 - - - - - - - - - 1019.2 1019.2 -
30/06:30am 17.2 - - - - - - - - - 1019.1 1019.1 -
30/06:00am 17.3 - - - - - - - - - 1018.9 1018.9 -
30/05:30am 17.4 - - - - - - - - - 1018.7 1018.7 -
30/05:00am 17.3 - - - - - - - - - 1018.6 1018.6 -
30/04:30am 17.6 - - - - - - - - - 1018.3 1018.3 -
30/04:00am 17.6 - - - - - - - - - 1018.2 1018.2 -
30/03:30am 17.6 - - - - - - - - - 1018.1 1018.1 -
30/03:00am 17.6 - - - - - - - - - 1018.2 1018.2 -
30/02:30am 17.6 - - - - - - - - - 1018.5 1018.5 -
30/02:00am 17.9 - - - - - - - - - 1018.7 1018.7 -
30/01:30am 18.1 - - - - - - - - - 1019.2 1019.2 -
30/01:00am 18.4 - - - - - - - - - 1019.5 1019.5 -
30/12:30am 18.2 - - - - - - - - - 1019.7 1019.7 -
30/12:00am 18.3 - - - - - - - - - 1019.9 1019.9 -
 
Date/Time
WST
Temp
°C
App
Temp
°C
Dew
Point
Rel
Hum
%
Delta-T
°C
Wind Press
QNH
hPa
Press
MSL
hPa
Rain
since 9 am
mm
Dir
 
Spd
km/h
Gust
km/h
Spd
kts
Gust
kts
29/11:30pm 18.3 - - - - - - - - - 1020.1 1020.1 -
29/11:00pm 18.2 - - - - - - - - - 1020.0 1020.0 -
29/10:30pm 18.5 - - - - - - - - - 1020.4 1020.4 -
29/10:00pm 18.6 - - - - - - - - - 1020.5 1020.5 -
29/09:30pm 19.0 - - - - - - - - - 1020.7 1020.7 -
29/09:00pm 19.1 - - - - - - - - - 1021.1 1021.0 -
29/08:30pm 19.2 - - - - - - - - - 1021.1 1021.0 -
29/08:00pm 19.3 - - - - - - - - - 1021.1 1021.0 -
29/07:30pm 19.6 - - - - - - - - - 1021.0 1020.9 -
29/07:00pm 19.8 - - - - - - - - - 1020.7 1020.7 -
29/06:30pm 20.3 - - - - - - - - - 1020.6 1020.6 -
29/06:00pm 20.6 - - - - - - - - - 1020.3 1020.3 -
29/05:30pm 21.0 - - - - - - - - - 1020.1 1020.1 -
29/05:00pm 21.5 - - - - - - - - - 1020.0 1020.0 -
29/04:30pm 21.1 - - - - - - - - - 1020.1 1020.1 -
29/04:00pm 21.6 - - - - - - - - - 1020.2 1020.2 -
29/03:30pm 21.2 - - - - - - - - - 1020.2 1020.2 -
29/03:00pm 21.2 - - - - - - - - - 1020.3 1020.3 -
29/02:30pm 21.0 - - - - - - - - - 1020.3 1020.3 -
29/02:00pm 21.2 - - - - - - - - - 1020.5 1020.5 -
29/01:30pm 21.2 - - - - - - - - - 1020.7 1020.7 -
29/01:00pm 20.9 - - - - - - - - - 1021.0 1020.9 -
29/12:30pm 21.0 - - - - - - - - - 1021.4 1021.3 -
29/12:00pm 21.0 - - - - - - - - - 1021.7 1021.6 -
29/11:30am 20.1 - - - - - - - - - 1022.2 1022.1 -
29/11:00am 20.4 - - - - - - - - - 1022.4 1022.3 -
29/10:30am 20.5 - - - - - - - - - 1022.7 1022.6 -
29/10:00am 20.4 - - - - - - - - - 1023.0 1022.9 -
29/09:30am 19.7 - - - - - - - - - 1023.1 1023.0 -
29/09:00am 18.1 - - - - - - - - - 1023.2 1023.1 -
29/08:30am 17.2 - - - - - - - - - 1023.3 1023.2 -
29/08:00am 15.8 - - - - - - - - - 1023.2 1023.1 -
29/07:30am 14.2 - - - - - - - - - 1022.9 1022.8 -
29/07:00am 13.3 - - - - - - - - - 1023.0 1022.9 -
29/06:30am 12.6 - - - - - - - - - 1022.7 1022.6 -
29/06:00am 12.6 - - - - - - - - - 1022.4 1022.3 -
29/05:30am 13.3 - - - - - - - - - 1022.1 1022.0 -
29/05:00am 13.6 - - - - - - - - - 1021.9 1021.8 -
29/04:30am 13.6 - - - - - - - - - 1021.7 1021.6 -
29/04:00am 13.4 - - - - - - - - - 1021.3 1021.2 -
29/03:30am 13.8 - - - - - - - - - 1021.2 1021.1 -
29/03:00am 13.9 - - - - - - - - - 1021.2 1021.1 -
29/02:30am 14.1 - - - - - - - - - 1021.2 1021.1 -
29/02:00am 14.4 - - - - - - - - - 1021.1 1021.0 -
29/01:30am 14.8 - - - - - - - - - 1021.1 1021.0 -
29/01:00am 15.3 - - - - - - - - - 1021.1 1021.0 -

Other Formats:

Comma delimited format used in spreadsheet applications
http://www.bom.gov.au/fwo/IDW60801/IDW60801.95648.axf

JavaScript Object Notation format (JSON) in row-major order
http://www.bom.gov.au/fwo/IDW60801/IDW60801.95648.json